Terminal Aerodrome Forecast
Issued by NWS Shreveport, LA

Current Version | Previous Version | Text Only | Print | Product List | Glossary On
Versions: 1 2 3 4 5 6 7 8 9 10 11 12 13 14
194
FTUS44 KSHV 201121
TAFTYR
TAF
KTYR 201121Z 2012/2112 VRB03KT P6SM BKN280
     FM201500 17007KT P6SM BKN280
     FM201800 18010KT P6SM BKN280
     FM210000 17007KT P6SM FEW250
     FM211000 17006KT P6SM FEW020 SCT200=

USA.gov is the U.S. government's official web portal to all federal, state and local government web resources and services.